createdAt,value
2022-12-04T00:01:29.246Z,4.48
2022-12-04T00:04:03.997Z,4.56
2022-12-04T00:06:35.381Z,4.22
2022-12-04T00:09:05.782Z,4.30
2022-12-04T00:11:35.925Z,4.11
2022-12-04T00:14:07.450Z,4.18
2022-12-04T00:16:36.513Z,4.25
2022-12-04T00:19:08.281Z,4.14
2022-12-04T00:21:37.498Z,4.31
2022-12-04T00:24:07.707Z,3.95
2022-12-04T00:26:38.646Z,4.24
2022-12-04T00:29:09.799Z,4.21
2022-12-04T00:31:38.414Z,4.19
2022-12-04T00:34:09.037Z,3.87
2022-12-04T00:36:38.090Z,4.29
2022-12-04T00:39:08.704Z,4.55
2022-12-04T00:41:38.140Z,4.40
2022-12-04T00:44:07.111Z,4.51
2022-12-04T00:46:37.107Z,4.29
2022-12-04T00:49:07.650Z,4.43
2022-12-04T00:51:36.680Z,4.21
2022-12-04T00:54:06.381Z,4.60
2022-12-04T00:56:35.228Z,4.47
2022-12-04T00:59:04.491Z,4.31
2022-12-04T01:01:33.103Z,4.40
2022-12-04T01:04:02.310Z,4.55
2022-12-04T01:06:36.627Z,4.60
2022-12-04T01:09:07.563Z,4.48
2022-12-04T01:11:37.028Z,4.68
2022-12-04T01:14:06.479Z,4.38
2022-12-04T01:16:38.678Z,4.29
2022-12-04T01:19:13.297Z,4.19
2022-12-04T01:21:44.549Z,4.68
2022-12-04T01:24:13.498Z,4.55
2022-12-04T01:26:42.487Z,4.54
2022-12-04T01:29:11.309Z,4.53
2022-12-04T01:31:40.499Z,4.62
2022-12-04T01:34:12.439Z,4.58
2022-12-04T01:36:44.934Z,4.45
2022-12-04T01:39:13.351Z,4.44
2022-12-04T01:41:42.681Z,4.55
2022-12-04T01:44:16.619Z,4.38
2022-12-04T01:46:47.255Z,4.53
2022-12-04T01:49:20.427Z,4.56
2022-12-04T01:51:56.592Z,4.15
2022-12-04T01:54:29.593Z,4.55
2022-12-04T01:57:04.970Z,4.52
2022-12-04T01:59:41.508Z,4.68
2022-12-04T02:02:14.490Z,4.53
2022-12-04T02:04:46.300Z,4.41
2022-12-04T02:07:16.260Z,4.63
2022-12-04T02:09:46.027Z,4.18
2022-12-04T02:12:24.152Z,4.29
2022-12-04T02:15:06.999Z,4.56
2022-12-04T02:17:46.908Z,4.61
2022-12-04T02:20:27.071Z,4.56
2022-12-04T02:23:35.696Z,4.50
2022-12-04T02:26:27.949Z,4.52
2022-12-04T02:29:04.205Z,3.96
2022-12-04T02:31:42.123Z,4.08
2022-12-04T02:34:28.380Z,4.44
2022-12-04T02:37:02.146Z,4.33
2022-12-04T02:39:41.556Z,4.44
2022-12-04T02:42:16.253Z,4.52
2022-12-04T02:44:55.280Z,4.58
2022-12-04T02:47:26.846Z,4.24
2022-12-04T02:50:01.156Z,4.22
2022-12-04T02:52:35.563Z,4.55
2022-12-04T02:55:11.114Z,4.46
2022-12-04T02:57:47.364Z,4.49
2022-12-04T03:00:20.172Z,4.38
2022-12-04T03:02:55.869Z,4.07
2022-12-04T03:05:30.204Z,4.15
2022-12-04T03:08:07.802Z,4.15
2022-12-04T03:10:44.475Z,4.13
2022-12-04T03:13:20.568Z,4.14
2022-12-04T03:15:56.929Z,4.61
2022-12-04T03:18:31.583Z,4.49
2022-12-04T03:21:05.729Z,4.45
2022-12-04T03:23:39.137Z,4.59
2022-12-04T03:26:17.236Z,4.51
2022-12-04T03:28:54.624Z,4.06
2022-12-04T03:31:37.921Z,4.64
2022-12-04T03:34:09.452Z,4.29
2022-12-04T03:36:46.321Z,4.27
2022-12-04T03:39:22.340Z,4.00
2022-12-04T03:42:02.203Z,4.06
2022-12-04T03:44:40.599Z,4.25
2022-12-04T03:47:17.328Z,4.30
2022-12-04T03:49:57.258Z,4.24
2022-12-04T03:52:34.855Z,4.59
2022-12-04T03:55:08.581Z,4.35
2022-12-04T03:57:42.527Z,4.25
2022-12-04T04:00:16.402Z,4.25
2022-12-04T04:02:52.205Z,4.59
2022-12-04T04:05:22.433Z,4.43
2022-12-04T04:07:56.385Z,4.56
2022-12-04T04:10:27.923Z,4.62
2022-12-04T04:13:19.899Z,4.40
2022-12-04T04:16:11.434Z,4.35
2022-12-04T04:19:02.050Z,4.54
2022-12-04T04:21:56.368Z,4.53
2022-12-04T04:24:36.666Z,4.47
2022-12-04T04:27:07.389Z,4.54
2022-12-04T04:29:38.260Z,4.56
2022-12-04T04:32:13.996Z,4.50
2022-12-04T04:34:52.352Z,4.64
2022-12-04T04:37:33.667Z,4.31
2022-12-04T04:40:11.364Z,4.61
2022-12-04T04:42:47.895Z,4.47
2022-12-04T04:45:22.831Z,4.46
2022-12-04T04:47:56.628Z,4.52
2022-12-04T04:50:27.430Z,4.39
2022-12-04T04:53:03.119Z,4.63
2022-12-04T04:55:34.901Z,4.34
2022-12-04T04:58:17.428Z,4.38
2022-12-04T05:00:58.211Z,4.13
2022-12-04T05:03:27.502Z,4.45
2022-12-04T05:05:59.168Z,4.28
2022-12-04T05:08:29.830Z,4.04
2022-12-04T05:10:58.965Z,3.97
2022-12-04T05:13:31.607Z,4.31
2022-12-04T05:16:02.416Z,4.44
2022-12-04T05:18:34.912Z,4.47
2022-12-04T05:21:08.118Z,4.40
2022-12-04T05:23:36.935Z,4.34
2022-12-04T05:26:07.690Z,4.55
2022-12-04T05:28:36.719Z,4.44
2022-12-04T05:31:06.109Z,4.30
2022-12-04T05:33:34.884Z,4.44
2022-12-04T05:36:06.317Z,4.62
2022-12-04T05:38:39.075Z,4.70
2022-12-04T05:41:15.616Z,4.38
2022-12-04T05:43:47.164Z,4.41
2022-12-04T05:46:17.602Z,4.59
2022-12-04T05:48:47.232Z,4.37
2022-12-04T05:51:15.903Z,4.65
2022-12-04T05:53:46.455Z,4.31
2022-12-04T05:56:25.030Z,4.70
2022-12-04T05:59:01.702Z,4.71
2022-12-04T06:01:35.131Z,4.61
2022-12-04T06:04:07.731Z,4.51
2022-12-04T06:06:41.272Z,4.45
2022-12-04T06:09:15.021Z,4.68
2022-12-04T06:11:45.219Z,4.65
2022-12-04T06:14:25.118Z,4.61
2022-12-04T06:16:56.569Z,4.56
2022-12-04T06:19:26.664Z,4.69
2022-12-04T06:21:56.571Z,4.70
2022-12-04T06:24:28.729Z,4.68
2022-12-04T06:27:29.424Z,4.74
2022-12-04T06:30:01.666Z,4.83
2022-12-04T06:32:32.456Z,4.62
2022-12-04T06:35:03.013Z,4.73
2022-12-04T06:37:32.459Z,4.75
2022-12-04T06:40:03.422Z,4.86
2022-12-04T06:42:33.066Z,4.81
2022-12-04T06:45:04.178Z,4.59
2022-12-04T06:47:33.486Z,4.82
2022-12-04T06:50:04.688Z,4.78
2022-12-04T06:52:35.074Z,4.70
2022-12-04T06:55:06.202Z,4.66
2022-12-04T06:57:38.497Z,4.74
2022-12-04T07:00:10.348Z,4.64
2022-12-04T07:02:42.162Z,4.63
2022-12-04T07:05:12.904Z,4.44
2022-12-04T07:07:42.385Z,4.60
2022-12-04T07:10:15.453Z,4.51
2022-12-04T07:12:45.778Z,4.56
2022-12-04T07:15:16.659Z,4.43
2022-12-04T07:17:45.672Z,4.35
2022-12-04T07:20:17.219Z,4.25
2022-12-04T07:23:14.403Z,4.72
2022-12-04T07:25:48.060Z,4.67
2022-12-04T07:28:25.866Z,4.48
2022-12-04T07:30:57.924Z,4.69
2022-12-04T07:33:26.521Z,4.31
2022-12-04T07:35:58.761Z,4.49
2022-12-04T07:38:28.518Z,4.59
2022-12-04T07:41:00.611Z,4.63
2022-12-04T07:43:32.532Z,4.73
2022-12-04T07:46:07.508Z,4.54
2022-12-04T07:48:36.318Z,4.46
2022-12-04T07:51:06.918Z,4.62
2022-12-04T07:53:36.895Z,4.54
2022-12-04T07:56:08.760Z,4.69
2022-12-04T07:58:37.860Z,4.40
2022-12-04T08:01:11.177Z,4.54
2022-12-04T08:03:46.862Z,4.60
2022-12-04T08:06:19.652Z,4.54
2022-12-04T08:08:50.899Z,4.22
2022-12-04T08:11:25.148Z,4.54
2022-12-04T08:13:56.292Z,4.65
2022-12-04T08:16:26.517Z,4.30
2022-12-04T08:18:57.063Z,4.60
2022-12-04T08:21:29.016Z,4.38
2022-12-04T08:23:59.923Z,4.44
2022-12-04T08:26:34.000Z,4.38
2022-12-04T08:29:04.592Z,4.34
2022-12-04T08:31:36.380Z,4.43
2022-12-04T08:34:07.678Z,4.35
2022-12-04T08:36:36.997Z,4.57
2022-12-04T08:39:06.352Z,4.20
2022-12-04T08:41:38.298Z,4.66
2022-12-04T08:44:10.257Z,4.71
2022-12-04T08:46:40.555Z,4.54
2022-12-04T08:49:09.612Z,4.60
2022-12-04T08:51:38.541Z,4.51
2022-12-04T08:54:10.251Z,4.66
2022-12-04T08:56:43.896Z,4.81
2022-12-04T08:59:15.002Z,4.82
2022-12-04T09:01:47.221Z,4.42
2022-12-04T09:04:15.979Z,4.54
2022-12-04T09:06:44.819Z,4.54
2022-12-04T09:09:16.667Z,4.26
2022-12-04T09:11:48.375Z,4.59
2022-12-04T09:14:25.884Z,4.69
2022-12-04T09:16:55.003Z,4.85
2022-12-04T09:19:23.406Z,4.59
2022-12-04T09:21:52.296Z,4.81
2022-12-04T09:24:23.889Z,4.81
2022-12-04T09:26:54.729Z,4.53
2022-12-04T09:29:26.366Z,4.80
2022-12-04T09:31:55.520Z,4.97
2022-12-04T09:34:24.240Z,4.88
2022-12-04T09:36:53.624Z,4.82
2022-12-04T09:39:22.390Z,4.64
2022-12-04T09:42:13.222Z,4.68
2022-12-04T09:44:47.163Z,4.76
2022-12-04T09:47:24.520Z,4.88
2022-12-04T09:49:58.773Z,4.80
2022-12-04T09:52:47.817Z,4.59
2022-12-04T09:55:24.171Z,4.98
2022-12-04T09:58:02.135Z,4.78
2022-12-04T10:00:33.971Z,4.73
2022-12-04T10:03:07.004Z,4.87
2022-12-04T10:05:51.834Z,4.63
2022-12-04T10:08:24.977Z,4.68
2022-12-04T10:11:10.504Z,5.08
2022-12-04T10:14:11.651Z,4.94
2022-12-04T10:16:57.469Z,5.00
2022-12-04T10:19:36.325Z,4.66
2022-12-04T10:22:15.459Z,4.71
2022-12-04T10:24:50.839Z,5.12
2022-12-04T10:27:25.963Z,4.91
2022-12-04T10:30:02.508Z,4.97
2022-12-04T10:32:34.935Z,5.00
2022-12-04T10:35:19.671Z,4.75
2022-12-04T10:37:52.596Z,5.20
2022-12-04T10:40:28.171Z,4.93
2022-12-04T10:43:04.332Z,4.69
2022-12-04T10:45:35.583Z,4.69
2022-12-04T10:48:04.708Z,4.95
2022-12-04T10:50:34.212Z,5.22
2022-12-04T10:53:03.977Z,4.78
2022-12-04T10:55:40.502Z,4.78
2022-12-04T10:58:19.102Z,4.77
2022-12-04T11:01:18.473Z,4.63
2022-12-04T11:03:56.345Z,4.87
2022-12-04T11:06:28.347Z,5.07
2022-12-04T11:08:58.225Z,5.08
2022-12-04T11:11:31.591Z,4.94
2022-12-04T11:14:08.776Z,4.83
2022-12-04T11:16:44.603Z,5.07
2022-12-04T11:19:26.220Z,4.73
2022-12-04T11:21:58.066Z,5.04
2022-12-04T11:24:32.084Z,4.41
2022-12-04T11:27:01.549Z,4.70
2022-12-04T11:29:34.992Z,5.26
2022-12-04T11:32:08.278Z,5.38
2022-12-04T11:34:41.711Z,4.94
2022-12-04T11:37:23.833Z,4.87
2022-12-04T11:39:55.807Z,5.05
2022-12-04T11:42:28.165Z,4.95
2022-12-04T11:45:01.128Z,4.90
2022-12-04T11:47:35.866Z,5.07
2022-12-04T11:50:24.812Z,4.98
2022-12-04T11:53:11.587Z,5.02
2022-12-04T11:55:54.499Z,5.04
2022-12-04T11:58:50.316Z,5.06
2022-12-04T12:01:35.583Z,4.83
2022-12-04T12:04:46.836Z,4.27
2022-12-04T12:07:41.954Z,5.17
2022-12-04T12:10:20.716Z,5.13
2022-12-04T12:13:05.425Z,5.11
2022-12-04T12:15:52.194Z,5.37
2022-12-04T12:18:43.300Z,5.22
2022-12-04T12:21:25.396Z,5.34
2022-12-04T12:24:25.240Z,5.26
2022-12-04T12:27:10.339Z,4.93
2022-12-04T12:29:58.360Z,5.44
2022-12-04T12:33:11.032Z,5.08
2022-12-04T12:35:47.476Z,5.16
2022-12-04T12:38:23.778Z,4.88
2022-12-04T12:41:02.049Z,5.07
2022-12-04T12:43:34.700Z,5.42
2022-12-04T12:46:13.855Z,5.49
2022-12-04T12:48:56.539Z,5.27
2022-12-04T12:51:37.960Z,5.52
2022-12-04T12:54:24.734Z,5.34
2022-12-04T12:57:03.035Z,5.29
2022-12-04T12:59:34.149Z,5.51
2022-12-04T13:02:12.790Z,5.33
2022-12-04T13:04:46.146Z,4.89
2022-12-04T13:07:35.889Z,4.98
2022-12-04T13:10:20.393Z,5.41
2022-12-04T13:13:00.116Z,5.15
2022-12-04T13:15:40.366Z,4.98
2022-12-04T13:18:27.726Z,5.40
2022-12-04T13:21:06.610Z,5.42
2022-12-04T13:23:52.308Z,5.54
2022-12-04T13:26:49.049Z,5.47
2022-12-04T13:29:51.862Z,5.26
2022-12-04T13:32:46.918Z,5.76
2022-12-04T13:35:29.960Z,5.53
2022-12-04T13:38:17.733Z,5.36
2022-12-04T13:40:54.955Z,5.62
2022-12-04T13:43:35.178Z,5.56
2022-12-04T13:46:08.747Z,5.84
2022-12-04T13:48:42.571Z,5.31
2022-12-04T13:51:37.853Z,5.59
2022-12-04T13:54:28.004Z,5.75
2022-12-04T13:57:11.490Z,5.41
2022-12-04T13:59:43.403Z,5.53
2022-12-04T14:02:35.882Z,5.49
2022-12-04T14:05:09.185Z,5.40
2022-12-04T14:07:40.450Z,5.43
2022-12-04T14:10:28.879Z,5.80
2022-12-04T14:13:08.683Z,5.63
2022-12-04T14:15:43.173Z,5.48
2022-12-04T14:18:29.364Z,5.47
2022-12-04T14:21:06.199Z,5.70
2022-12-04T14:23:41.989Z,5.51
2022-12-04T14:26:37.337Z,5.50
2022-12-04T14:29:42.378Z,5.48
2022-12-04T14:32:18.708Z,5.82
2022-12-04T14:34:50.929Z,5.93
2022-12-04T14:37:29.433Z,5.41
2022-12-04T14:39:59.353Z,5.12
2022-12-04T14:42:38.970Z,5.55
2022-12-04T14:45:23.262Z,5.68
2022-12-04T14:48:17.191Z,5.51
2022-12-04T14:50:55.152Z,5.22
2022-12-04T14:53:37.400Z,5.56
2022-12-04T14:56:45.064Z,5.73
2022-12-04T14:59:21.437Z,5.41
2022-12-04T15:01:54.384Z,5.83
2022-12-04T15:04:30.371Z,5.87
2022-12-04T15:07:03.158Z,5.97
2022-12-04T15:09:52.354Z,5.61
2022-12-04T15:12:37.285Z,5.50
2022-12-04T15:15:27.335Z,5.42
2022-12-04T15:18:02.995Z,5.14
2022-12-04T15:20:40.073Z,5.36
2022-12-04T15:23:14.374Z,5.68
2022-12-04T15:25:49.905Z,5.67
2022-12-04T15:28:22.844Z,5.76
2022-12-04T15:30:54.309Z,5.85
2022-12-04T15:33:27.752Z,5.81
2022-12-04T15:36:05.561Z,5.81
2022-12-04T15:38:38.996Z,5.67
2022-12-04T15:41:10.954Z,5.77
2022-12-04T15:43:44.116Z,5.87
2022-12-04T15:46:23.365Z,5.89
2022-12-04T15:48:54.767Z,5.39
2022-12-04T15:51:45.814Z,5.76
2022-12-04T15:54:40.576Z,5.53
2022-12-04T15:57:31.424Z,5.77
2022-12-04T16:00:06.262Z,5.64
2022-12-04T16:02:44.730Z,5.65
2022-12-04T16:05:32.951Z,5.94
2022-12-04T16:08:25.425Z,5.81
2022-12-04T16:11:08.226Z,5.91
2022-12-04T16:13:40.575Z,6.16
2022-12-04T16:16:17.206Z,6.18
2022-12-04T16:19:00.276Z,6.01
2022-12-04T16:21:50.699Z,5.99
2022-12-04T16:27:25.775Z,5.76
2022-12-04T16:29:56.817Z,5.96
2022-12-04T16:32:37.232Z,5.90
2022-12-04T16:35:23.983Z,5.95
2022-12-04T16:37:56.810Z,5.84
2022-12-04T16:40:34.603Z,5.81
2022-12-04T16:43:09.461Z,5.83
2022-12-04T16:45:47.668Z,6.02
2022-12-04T16:48:22.313Z,5.48
2022-12-04T16:50:59.382Z,6.13
2022-12-04T16:53:35.962Z,6.11
2022-12-04T16:56:17.308Z,6.15
2022-12-04T16:59:02.009Z,6.00
2022-12-04T17:01:49.095Z,5.94
2022-12-04T17:04:27.491Z,6.01
2022-12-04T17:07:05.640Z,5.79
2022-12-04T17:09:47.607Z,6.11
2022-12-04T17:12:25.490Z,6.26
2022-12-04T17:14:57.725Z,5.86
2022-12-04T17:17:43.912Z,6.09
2022-12-04T17:20:27.292Z,5.64
2022-12-04T17:23:10.456Z,5.72
2022-12-04T17:26:04.053Z,6.27
2022-12-04T17:28:47.017Z,6.04
2022-12-04T17:31:51.796Z,6.12
2022-12-04T17:34:32.231Z,6.35
2022-12-04T17:37:20.593Z,6.22
2022-12-04T17:40:04.592Z,6.18
2022-12-04T17:42:42.889Z,5.92
2022-12-04T17:45:35.551Z,6.05
2022-12-04T17:48:08.229Z,5.92
2022-12-04T17:50:42.577Z,5.98
2022-12-04T17:53:20.685Z,6.25
2022-12-04T17:55:51.745Z,6.03
2022-12-04T17:58:22.461Z,6.41
2022-12-04T18:00:57.595Z,6.18
2022-12-04T18:03:27.096Z,6.45
2022-12-04T18:05:57.260Z,6.10
2022-12-04T18:08:30.609Z,5.95
2022-12-04T18:11:07.239Z,6.09
2022-12-04T18:13:37.566Z,6.25
2022-12-04T18:16:15.928Z,6.00
2022-12-04T18:18:50.877Z,6.21
2022-12-04T18:21:20.715Z,6.01
2022-12-04T18:23:51.981Z,6.21
2022-12-04T18:26:23.660Z,6.46
2022-12-04T18:28:55.879Z,6.02
2022-12-04T18:31:26.540Z,6.13
2022-12-04T18:33:55.949Z,6.51
2022-12-04T18:36:27.774Z,6.36
2022-12-04T18:38:59.997Z,6.15
2022-12-04T18:41:31.414Z,6.14
2022-12-04T18:44:08.834Z,6.12
2022-12-04T18:46:45.978Z,5.93
2022-12-04T18:49:17.538Z,6.29
2022-12-04T18:51:50.489Z,6.32
2022-12-04T18:54:27.618Z,5.95
2022-12-04T18:56:57.841Z,6.41
2022-12-04T18:59:36.473Z,6.30
2022-12-04T19:02:09.174Z,6.34
2022-12-04T19:04:42.425Z,6.40
2022-12-04T19:07:13.187Z,5.91
2022-12-04T19:12:37.481Z,6.70
2022-12-04T19:15:13.422Z,6.38
2022-12-04T19:17:49.489Z,6.30
2022-12-04T19:20:21.540Z,6.63
2022-12-04T19:22:54.593Z,6.69
2022-12-04T19:25:24.800Z,6.67
2022-12-04T19:27:59.948Z,6.49
2022-12-04T19:30:35.462Z,6.56
2022-12-04T19:33:49.122Z,6.34
2022-12-04T19:36:38.766Z,6.53
2022-12-04T19:39:54.025Z,6.44
2022-12-04T19:43:02.806Z,6.68
2022-12-04T19:49:04.502Z,6.86
2022-12-04T19:52:03.323Z,6.80
2022-12-04T19:55:18.463Z,6.82
2022-12-04T19:59:02.429Z,6.44
2022-12-04T20:02:24.945Z,6.42
2022-12-04T20:05:09.430Z,6.70
2022-12-04T20:10:50.642Z,6.79
2022-12-04T20:14:01.500Z,6.81
2022-12-04T20:16:49.253Z,6.78
2022-12-04T20:22:40.808Z,6.55
2022-12-04T20:25:37.531Z,6.65
2022-12-04T20:28:23.008Z,6.55
2022-12-04T20:31:34.589Z,6.57
2022-12-04T20:34:49.571Z,6.63
2022-12-04T20:37:32.261Z,6.65
2022-12-04T20:40:33.685Z,6.86
2022-12-04T20:43:46.709Z,6.88
2022-12-04T20:46:37.506Z,6.93
2022-12-04T20:49:21.654Z,6.80
2022-12-04T20:52:04.821Z,6.84
2022-12-04T20:54:41.909Z,6.78
2022-12-04T20:57:12.552Z,6.97
2022-12-04T20:59:42.007Z,6.91
2022-12-04T21:02:14.003Z,6.80
2022-12-04T21:04:43.224Z,6.77
2022-12-04T21:07:12.821Z,6.74
2022-12-04T21:09:42.199Z,6.93
2022-12-04T21:12:37.397Z,6.96
2022-12-04T21:15:29.202Z,6.74
2022-12-04T21:18:02.453Z,6.80
2022-12-04T21:20:45.042Z,6.86
2022-12-04T21:23:14.741Z,6.98
2022-12-04T21:25:44.528Z,7.04
2022-12-04T21:28:14.669Z,7.04
2022-12-04T21:30:43.564Z,7.13
2022-12-04T21:33:17.041Z,6.86
2022-12-04T21:35:49.017Z,6.93
2022-12-04T21:38:18.291Z,7.09
2022-12-04T21:40:53.434Z,7.13
2022-12-04T21:43:26.789Z,6.96
2022-12-04T21:46:07.445Z,7.21
2022-12-04T21:48:40.233Z,7.29
2022-12-04T21:51:26.840Z,7.19
2022-12-04T21:53:59.769Z,7.23
2022-12-04T21:56:28.802Z,7.22
2022-12-04T21:58:58.291Z,7.17
2022-12-04T22:01:29.095Z,7.15
2022-12-04T22:04:00.736Z,7.43
2022-12-04T22:06:31.103Z,7.42
2022-12-04T22:09:00.839Z,7.27
2022-12-04T22:11:29.884Z,7.29
2022-12-04T22:13:59.074Z,7.46
2022-12-04T22:16:30.958Z,7.57
2022-12-04T22:19:01.645Z,7.23
2022-12-04T22:21:31.093Z,7.32
2022-12-04T22:24:02.004Z,7.43
2022-12-04T22:26:33.240Z,7.48
2022-12-04T22:29:20.710Z,7.52
2022-12-04T22:31:54.024Z,7.31
2022-12-04T22:34:24.499Z,7.56
2022-12-04T22:36:53.499Z,7.49
2022-12-04T22:39:22.679Z,7.63
2022-12-04T22:41:51.694Z,7.64
2022-12-04T22:44:21.396Z,7.39
2022-12-04T22:46:50.453Z,7.47
2022-12-04T22:49:18.908Z,7.63
2022-12-04T22:51:50.832Z,7.77
2022-12-04T22:54:19.591Z,7.90
2022-12-04T22:56:48.317Z,7.82
2022-12-04T22:59:18.421Z,7.72
2022-12-04T23:01:47.852Z,7.54
2022-12-04T23:04:16.445Z,7.75
2022-12-04T23:06:44.991Z,7.58
2022-12-04T23:09:18.623Z,7.31
2022-12-04T23:11:52.697Z,7.54
2022-12-04T23:14:22.169Z,7.63
2022-12-04T23:16:51.060Z,7.69
2022-12-04T23:19:20.903Z,7.61
2022-12-04T23:21:57.032Z,7.73
2022-12-04T23:24:28.296Z,7.57
2022-12-04T23:26:58.391Z,7.56
2022-12-04T23:29:52.315Z,7.70
2022-12-04T23:32:16.996Z,7.70
2022-12-04T23:34:46.009Z,7.87
2022-12-04T23:37:14.645Z,7.50
2022-12-04T23:39:46.684Z,7.60
2022-12-04T23:42:15.669Z,7.67
2022-12-04T23:44:44.794Z,7.63
2022-12-04T23:47:13.513Z,7.76
2022-12-04T23:49:42.197Z,7.34
2022-12-04T23:52:12.181Z,7.57
2022-12-04T23:54:41.105Z,7.64
2022-12-04T23:57:12.005Z,7.62
2022-12-04T23:59:41.992Z,7.71
